createdAt,value
2019-05-17T00:02:28.953Z,10.12
2019-05-17T00:05:00.946Z,10.07
2019-05-17T00:07:32.915Z,10.00
2019-05-17T00:10:06.778Z,9.93
2019-05-17T00:12:38.948Z,9.95
2019-05-17T00:15:11.126Z,9.89
2019-05-17T00:17:43.077Z,9.82
2019-05-17T00:20:17.422Z,9.68
2019-05-17T00:22:49.026Z,9.48
2019-05-17T00:25:21.026Z,9.39
2019-05-17T00:27:53.025Z,9.39
2019-05-17T00:30:26.556Z,9.42
2019-05-17T00:32:58.690Z,9.51
2019-05-17T00:35:30.674Z,9.42
2019-05-17T00:38:02.656Z,9.25
2019-05-17T00:40:36.674Z,9.20
2019-05-17T00:43:08.469Z,9.15
2019-05-17T00:45:40.419Z,9.17
2019-05-17T00:48:12.382Z,9.22
2019-05-17T00:50:44.351Z,9.23
2019-05-17T00:53:16.460Z,9.25
2019-05-17T00:55:48.511Z,9.26
2019-05-17T00:58:20.464Z,9.30
2019-05-17T01:00:52.544Z,9.14
2019-05-17T01:03:26.777Z,9.06
2019-05-17T01:05:58.422Z,9.05
2019-05-17T01:08:30.503Z,9.05
2019-05-17T01:11:02.470Z,9.06
2019-05-17T01:13:34.434Z,9.05
2019-05-17T01:16:07.319Z,9.06
2019-05-17T01:21:38.353Z,9.03
2019-05-17T01:24:07.443Z,8.98
2019-05-17T01:26:42.915Z,8.96
2019-05-17T01:29:17.297Z,8.87
2019-05-17T01:31:48.838Z,8.85
2019-05-17T01:34:20.823Z,8.75
2019-05-17T01:36:52.797Z,8.74
2019-05-17T01:39:26.733Z,8.73
2019-05-17T01:41:58.671Z,8.67
2019-05-17T01:44:30.669Z,8.47
2019-05-17T01:47:02.657Z,8.47
2019-05-17T01:49:36.313Z,8.48
2019-05-17T01:52:08.515Z,8.51
2019-05-17T01:54:40.507Z,8.47
2019-05-17T01:57:12.484Z,8.54
2019-05-17T01:59:46.550Z,8.53
2019-05-17T02:02:23.637Z,8.55
2019-05-17T02:04:56.951Z,8.52
2019-05-17T02:07:29.094Z,8.59
2019-05-17T02:10:01.066Z,8.53
2019-05-17T02:12:33.057Z,8.50
2019-05-17T02:15:06.947Z,8.47
2019-05-17T02:17:38.963Z,8.41
2019-05-17T02:20:12.737Z,8.42
2019-05-17T02:22:47.080Z,8.27
2019-05-17T02:25:18.709Z,8.21
2019-05-17T02:27:52.313Z,8.20
2019-05-17T02:30:24.464Z,8.02
2019-05-17T02:32:56.606Z,7.87
2019-05-17T02:35:28.606Z,7.78
2019-05-17T02:38:02.938Z,7.78
2019-05-17T02:40:34.554Z,7.70
2019-05-17T02:43:06.508Z,7.62
2019-05-17T02:45:38.507Z,7.60
2019-05-17T02:48:13.151Z,7.62
2019-05-17T02:50:47.382Z,7.66
2019-05-17T02:53:18.234Z,7.60
2019-05-17T02:55:50.186Z,7.48
2019-05-17T02:58:23.342Z,7.34
2019-05-17T03:00:55.484Z,7.31
2019-05-17T03:03:27.465Z,7.44
2019-05-17T03:06:02.656Z,7.51
2019-05-17T03:08:34.310Z,7.47
2019-05-17T03:11:06.451Z,7.43
2019-05-17T03:13:38.404Z,7.49
2019-05-17T03:16:14.354Z,7.50
2019-05-17T03:18:44.263Z,7.59
2019-05-17T03:21:16.242Z,7.64
2019-05-17T03:23:48.280Z,7.59
2019-05-17T03:26:22.860Z,7.62
2019-05-17T03:28:54.183Z,7.57
2019-05-17T03:31:27.096Z,7.59
2019-05-17T03:34:05.602Z,7.62
2019-05-17T03:36:36.348Z,7.55
2019-05-17T03:39:08.625Z,7.49
2019-05-17T03:41:42.896Z,7.57
2019-05-17T03:44:14.425Z,7.63
2019-05-17T03:46:46.408Z,7.59
2019-05-17T03:49:18.384Z,7.71
2019-05-17T03:51:52.980Z,7.70
2019-05-17T03:54:24.318Z,7.66
2019-05-17T03:56:56.261Z,7.66
2019-05-17T03:59:28.208Z,7.61
2019-05-17T04:02:03.006Z,7.65
2019-05-17T04:04:34.027Z,7.71
2019-05-17T04:07:05.986Z,7.57
2019-05-17T04:09:37.967Z,7.59
2019-05-17T04:12:13.325Z,7.55
2019-05-17T04:14:43.826Z,7.49
2019-05-17T04:17:15.783Z,7.51
2019-05-17T04:19:47.767Z,7.53
2019-05-17T04:22:19.702Z,7.57
2019-05-17T04:24:52.508Z,7.56
2019-05-17T04:27:24.673Z,7.59
2019-05-17T04:29:56.643Z,7.58
2019-05-17T04:32:28.588Z,7.64
2019-05-17T04:35:03.723Z,7.64
2019-05-17T04:37:38.332Z,7.78
2019-05-17T04:40:08.536Z,7.83
2019-05-17T04:42:43.657Z,7.92
2019-05-17T04:45:14.498Z,7.89
2019-05-17T04:47:46.530Z,7.91
2019-05-17T04:50:18.539Z,7.90
2019-05-17T04:52:53.671Z,7.94
2019-05-17T04:55:24.373Z,8.04
2019-05-17T04:57:56.432Z,8.26
2019-05-17T05:00:28.440Z,8.37
2019-05-17T05:03:03.471Z,8.57
2019-05-17T05:05:34.363Z,8.83
2019-05-17T05:08:06.318Z,9.10
2019-05-17T05:10:42.740Z,9.26
2019-05-17T05:13:15.081Z,9.35
2019-05-17T05:18:33.769Z,9.93
2019-05-17T05:21:05.768Z,10.25
2019-05-17T05:23:37.752Z,10.87
2019-05-17T05:26:11.905Z,11.38
2019-05-17T05:28:43.620Z,11.95
2019-05-17T05:31:15.590Z,12.42
2019-05-17T05:33:47.557Z,12.72
2019-05-17T05:36:21.957Z,13.11
2019-05-17T05:38:53.393Z,13.34
2019-05-17T05:41:25.380Z,13.66
2019-05-17T05:43:57.376Z,13.68
2019-05-17T05:46:31.652Z,13.72
2019-05-17T05:49:03.237Z,13.99
2019-05-17T05:51:35.226Z,14.58
2019-05-17T05:54:07.170Z,14.69
2019-05-17T05:56:39.160Z,14.99
2019-05-17T05:59:12.100Z,15.24
2019-05-17T06:01:44.328Z,15.62
2019-05-17T06:04:16.341Z,16.05
2019-05-17T06:06:48.314Z,16.24
2019-05-17T06:09:22.324Z,16.58
2019-05-17T06:11:54.217Z,16.92
2019-05-17T06:14:26.207Z,17.10
2019-05-17T06:16:58.190Z,17.33
2019-05-17T06:19:31.525Z,17.58
2019-05-17T06:22:03.684Z,17.81
2019-05-17T06:24:35.701Z,18.49
2019-05-17T06:27:07.729Z,18.18
2019-05-17T06:29:41.487Z,18.80
2019-05-17T06:32:13.620Z,18.65
2019-05-17T06:34:45.609Z,18.12
2019-05-17T06:37:17.579Z,18.21
2019-05-17T06:39:49.570Z,18.48
2019-05-17T06:42:25.897Z,18.34
2019-05-17T06:44:55.462Z,18.56
2019-05-17T06:47:27.442Z,18.90
2019-05-17T06:49:59.455Z,18.78
2019-05-17T06:52:32.667Z,19.44
2019-05-17T06:55:05.953Z,19.39
2019-05-17T06:57:38.042Z,19.45
2019-05-17T07:00:18.145Z,19.74
2019-05-17T07:02:44.654Z,20.15
2019-05-17T07:05:21.456Z,19.77
2019-05-17T07:07:53.422Z,19.39
2019-05-17T07:10:25.407Z,19.97
2019-05-17T07:12:59.590Z,20.08
2019-05-17T07:15:43.693Z,18.88
2019-05-17T07:18:05.240Z,19.13
2019-05-17T07:20:39.320Z,19.59
2019-05-17T07:23:11.183Z,20.09
2019-05-17T07:25:43.228Z,20.24
2019-05-17T07:28:15.179Z,20.40
2019-05-17T07:30:47.195Z,19.84
2019-05-17T07:33:19.901Z,20.10
2019-05-17T07:35:51.974Z,20.25
2019-05-17T07:38:23.965Z,20.39
2019-05-17T07:40:55.968Z,20.68
2019-05-17T07:43:29.860Z,19.99
2019-05-17T07:46:01.838Z,19.77
2019-05-17T07:48:33.819Z,20.46
2019-05-17T07:51:05.822Z,20.63
2019-05-17T07:53:39.897Z,20.69
2019-05-17T07:56:11.692Z,20.85
2019-05-17T07:58:43.684Z,21.02
2019-05-17T08:01:15.691Z,21.83
2019-05-17T08:03:49.954Z,22.08
2019-05-17T08:06:21.588Z,21.96
2019-05-17T08:08:53.562Z,21.36
2019-05-17T08:11:25.562Z,20.85
2019-05-17T08:13:59.644Z,20.13
2019-05-17T08:16:31.431Z,19.27
2019-05-17T08:19:03.415Z,19.19
2019-05-17T08:21:35.386Z,19.06
2019-05-17T08:24:07.393Z,19.09
2019-05-17T08:26:40.382Z,19.52
2019-05-17T08:29:12.581Z,19.63
2019-05-17T08:31:44.551Z,19.95
2019-05-17T08:34:16.531Z,19.98
2019-05-17T08:36:49.872Z,19.86
2019-05-17T08:39:21.960Z,19.69
2019-05-17T08:41:53.947Z,19.86
2019-05-17T08:44:25.916Z,19.52
2019-05-17T08:46:59.524Z,19.64
2019-05-17T08:49:31.685Z,20.03
2019-05-17T08:52:03.722Z,19.90
2019-05-17T08:54:35.710Z,19.78
2019-05-17T08:57:09.557Z,20.11
2019-05-17T08:59:41.583Z,20.19
2019-05-17T09:02:13.599Z,20.23
2019-05-17T09:04:45.601Z,20.41
2019-05-17T09:07:20.194Z,20.63
2019-05-17T09:09:51.546Z,20.28
2019-05-17T09:12:23.518Z,20.25
2019-05-17T09:14:55.533Z,20.33
2019-05-17T09:17:29.849Z,20.44
2019-05-17T09:20:01.397Z,20.60
2019-05-17T09:22:33.430Z,20.82
2019-05-17T09:25:06.871Z,20.98
2019-05-17T09:27:39.645Z,21.02
2019-05-17T09:30:13.418Z,20.90
2019-05-17T09:32:45.389Z,21.08
2019-05-17T09:35:17.376Z,20.89
2019-05-17T09:37:49.960Z,20.99
2019-05-17T09:40:22.053Z,21.25
2019-05-17T09:42:54.037Z,21.07
2019-05-17T09:45:26.009Z,20.83
2019-05-17T09:48:00.719Z,20.79
2019-05-17T09:50:32.467Z,20.33
2019-05-17T09:53:04.424Z,20.17
2019-05-17T09:55:36.407Z,20.24
2019-05-17T09:58:09.969Z,20.27
2019-05-17T10:00:42.143Z,20.22
2019-05-17T10:03:14.114Z,20.47
2019-05-17T10:05:46.151Z,20.84
2019-05-17T10:08:18.090Z,20.81
2019-05-17T10:11:04.299Z,20.33
2019-05-17T10:13:23.967Z,20.06
2019-05-17T10:15:55.954Z,20.32
2019-05-17T10:18:29.579Z,20.39
2019-05-17T10:21:01.742Z,20.24
2019-05-17T10:23:33.700Z,20.40
2019-05-17T10:26:05.736Z,20.58
2019-05-17T10:28:39.812Z,20.58
2019-05-17T10:31:12.198Z,19.98
2019-05-17T10:33:44.308Z,20.23
2019-05-17T10:36:16.336Z,19.94
2019-05-17T10:38:50.214Z,19.78
2019-05-17T10:41:22.190Z,19.58
2019-05-17T10:43:54.155Z,19.96
2019-05-17T10:46:26.180Z,19.93
2019-05-17T10:48:58.181Z,20.15
2019-05-17T10:51:30.202Z,19.78
2019-05-17T10:54:04.437Z,20.04
2019-05-17T10:56:36.091Z,20.15
2019-05-17T10:59:09.848Z,20.44
2019-05-17T11:01:42.005Z,20.16
2019-05-17T11:04:14.013Z,20.07
2019-05-17T11:06:46.048Z,20.37
2019-05-17T11:09:20.527Z,20.49
2019-05-17T11:11:51.973Z,20.37
2019-05-17T11:14:23.946Z,20.40
2019-05-17T11:16:56.036Z,20.13
2019-05-17T11:19:28.024Z,20.08
2019-05-17T11:22:00.086Z,20.17
2019-05-17T11:24:32.043Z,20.50
2019-05-17T11:27:04.034Z,20.46
2019-05-17T11:29:35.988Z,20.50
2019-05-17T11:32:08.030Z,20.51
2019-05-17T11:34:40.126Z,20.60
2019-05-17T11:37:12.116Z,20.69
2019-05-17T11:39:44.109Z,20.74
2019-05-17T11:42:16.096Z,20.87
2019-05-17T11:44:48.123Z,20.99
2019-05-17T11:47:20.113Z,21.10
2019-05-17T11:49:52.104Z,21.06
2019-05-17T11:52:24.144Z,21.26
2019-05-17T11:54:56.124Z,21.21
2019-05-17T11:57:28.145Z,21.12
2019-05-17T12:00:00.149Z,21.24
2019-05-17T12:02:32.144Z,21.39
2019-05-17T12:05:04.365Z,21.57
2019-05-17T12:07:36.421Z,21.62
2019-05-17T12:10:08.637Z,21.63
2019-05-17T12:12:40.638Z,21.64
2019-05-17T12:15:12.844Z,21.59
2019-05-17T12:17:44.831Z,21.70
2019-05-17T12:20:17.038Z,21.63
2019-05-17T12:22:49.072Z,21.65
2019-05-17T12:25:21.075Z,21.68
2019-05-17T12:27:53.214Z,21.81
2019-05-17T12:30:25.213Z,21.81
2019-05-17T12:32:57.200Z,21.91
2019-05-17T12:35:29.314Z,21.92
2019-05-17T12:38:01.355Z,21.89
2019-05-17T12:40:33.366Z,21.81
2019-05-17T12:43:05.367Z,21.69
2019-05-17T12:45:37.310Z,21.85
2019-05-17T12:48:09.371Z,21.99
2019-05-17T12:50:41.372Z,22.11
2019-05-17T12:53:13.360Z,22.30
2019-05-17T12:55:45.409Z,22.33
2019-05-17T12:58:17.437Z,22.21
2019-05-17T13:00:49.404Z,22.21
2019-05-17T13:03:21.401Z,21.99
2019-05-17T13:05:53.447Z,21.95
2019-05-17T13:08:25.449Z,22.05
2019-05-17T13:10:57.476Z,22.18
2019-05-17T13:13:29.477Z,22.05
2019-05-17T13:16:16.839Z,22.10
2019-05-17T13:18:35.419Z,21.97
2019-05-17T13:21:07.426Z,22.00
2019-05-17T13:23:39.515Z,22.08
2019-05-17T13:26:11.541Z,22.02
2019-05-17T13:28:43.519Z,22.04
2019-05-17T13:31:15.531Z,21.99
2019-05-17T13:33:47.503Z,22.00
2019-05-17T13:36:19.542Z,22.11
2019-05-17T13:38:51.529Z,22.23
2019-05-17T13:41:23.575Z,22.37
2019-05-17T13:43:55.707Z,22.60
2019-05-17T13:46:33.320Z,22.79
2019-05-17T13:49:01.661Z,22.65
2019-05-17T13:51:33.687Z,22.70
2019-05-17T13:54:05.750Z,22.82
2019-05-17T13:56:37.830Z,22.69
2019-05-17T13:59:09.828Z,22.84
2019-05-17T14:01:41.839Z,22.83
2019-05-17T14:04:13.867Z,22.70
2019-05-17T14:06:45.865Z,22.71
2019-05-17T14:09:17.855Z,22.68
2019-05-17T14:11:49.839Z,22.57
2019-05-17T14:14:21.810Z,22.28
2019-05-17T14:16:53.924Z,22.33
2019-05-17T14:19:25.877Z,22.47
2019-05-17T14:21:57.894Z,22.65
2019-05-17T14:24:29.920Z,22.55
2019-05-17T14:27:01.936Z,22.12
2019-05-17T14:29:33.945Z,22.35
2019-05-17T14:32:06.035Z,22.31
2019-05-17T14:34:38.444Z,22.29
2019-05-17T14:37:10.500Z,22.30
2019-05-17T14:39:42.764Z,22.44
2019-05-17T14:42:14.743Z,22.29
2019-05-17T14:44:46.732Z,22.38
2019-05-17T14:47:18.769Z,22.39
2019-05-17T14:49:51.234Z,22.30
2019-05-17T14:52:23.401Z,22.42
2019-05-17T14:54:55.409Z,22.46
2019-05-17T14:57:27.454Z,22.44
2019-05-17T14:59:59.440Z,22.37
2019-05-17T15:02:31.485Z,22.41
2019-05-17T15:05:03.702Z,22.62
2019-05-17T15:07:35.841Z,22.60
2019-05-17T15:10:08.033Z,22.55
2019-05-17T15:12:40.065Z,22.60
2019-05-17T15:15:12.241Z,22.63
2019-05-17T15:17:44.243Z,22.67
2019-05-17T15:20:16.273Z,22.60
2019-05-17T15:22:48.278Z,22.61
2019-05-17T15:25:20.913Z,22.65
2019-05-17T15:27:52.949Z,22.48
2019-05-17T15:30:24.924Z,22.31
2019-05-17T15:32:56.874Z,22.34
2019-05-17T15:35:28.900Z,22.41
2019-05-17T15:38:00.920Z,22.52
2019-05-17T15:40:32.907Z,22.43
2019-05-17T15:43:04.918Z,22.40
2019-05-17T15:45:36.924Z,22.35
2019-05-17T15:48:09.124Z,22.29
2019-05-17T15:50:41.128Z,22.51
2019-05-17T15:53:13.167Z,22.58
2019-05-17T15:55:45.160Z,22.39
2019-05-17T15:58:17.215Z,22.29
2019-05-17T16:00:49.202Z,22.26
2019-05-17T16:03:21.217Z,22.23
2019-05-17T16:05:53.248Z,22.24
2019-05-17T16:08:25.285Z,22.36
2019-05-17T16:10:57.329Z,22.37
2019-05-17T16:13:29.377Z,22.26
2019-05-17T16:16:01.364Z,22.04
2019-05-17T16:18:33.361Z,21.88
2019-05-17T16:21:05.467Z,21.65
2019-05-17T16:23:37.465Z,21.62
2019-05-17T16:26:09.505Z,21.50
2019-05-17T16:28:41.538Z,21.34
2019-05-17T16:31:13.534Z,21.40
2019-05-17T16:33:45.551Z,21.51
2019-05-17T16:36:17.582Z,21.25
2019-05-17T16:38:49.589Z,21.18
2019-05-17T16:41:21.584Z,20.79
2019-05-17T16:43:53.600Z,20.60
2019-05-17T16:46:25.600Z,20.44
2019-05-17T16:48:57.597Z,20.31
2019-05-17T16:51:29.656Z,20.15
2019-05-17T16:54:01.651Z,19.97
2019-05-17T16:56:33.652Z,19.91
2019-05-17T16:59:05.630Z,19.67
2019-05-17T17:01:37.641Z,19.49
2019-05-17T17:04:09.722Z,19.48
2019-05-17T17:06:41.761Z,19.40
2019-05-17T17:09:13.839Z,19.26
2019-05-17T17:11:45.892Z,19.04
2019-05-17T17:14:17.963Z,18.88
2019-05-17T17:16:50.036Z,18.72
2019-05-17T17:19:22.062Z,18.69
2019-05-17T17:21:54.113Z,18.65
2019-05-17T17:24:26.115Z,18.59
2019-05-17T17:26:58.171Z,18.60
2019-05-17T17:29:30.261Z,18.61
2019-05-17T17:32:02.367Z,18.71
2019-05-17T17:34:34.385Z,18.56
2019-05-17T17:37:06.433Z,18.47
2019-05-17T17:39:38.446Z,18.54
2019-05-17T17:42:10.484Z,18.54
2019-05-17T17:44:42.513Z,18.49
2019-05-17T17:47:14.579Z,18.58
2019-05-17T17:49:46.592Z,18.48
2019-05-17T17:52:18.724Z,18.42
2019-05-17T17:54:50.691Z,18.28
2019-05-17T17:57:22.742Z,18.13
2019-05-17T17:59:55.744Z,18.06
2019-05-17T18:02:27.895Z,18.02
2019-05-17T18:05:00.045Z,17.99
2019-05-17T18:07:32.298Z,17.95
2019-05-17T18:10:05.768Z,17.93
2019-05-17T18:12:37.801Z,17.92
2019-05-17T18:15:10.843Z,17.84
2019-05-17T18:17:42.965Z,17.78
2019-05-17T18:20:15.013Z,17.83
2019-05-17T18:22:47.024Z,17.79
2019-05-17T18:25:19.075Z,17.72
2019-05-17T18:27:51.128Z,17.60
2019-05-17T18:30:23.127Z,17.49
2019-05-17T18:32:55.214Z,17.40
2019-05-17T18:35:27.261Z,17.35
2019-05-17T18:37:59.319Z,17.28
2019-05-17T18:40:31.466Z,17.21
2019-05-17T18:43:03.804Z,17.13
2019-05-17T18:45:35.850Z,17.06
2019-05-17T18:48:07.875Z,17.09
2019-05-17T18:50:39.903Z,17.14
2019-05-17T18:53:16.810Z,17.09
2019-05-17T18:55:45.953Z,17.09
2019-05-17T18:58:18.063Z,16.97
2019-05-17T19:00:50.028Z,16.85
2019-05-17T19:03:22.076Z,16.74
2019-05-17T19:05:54.095Z,16.67
2019-05-17T19:08:26.134Z,16.62
2019-05-17T19:10:58.136Z,16.50
2019-05-17T19:13:30.183Z,16.47
2019-05-17T19:16:02.275Z,16.44
2019-05-17T19:18:34.315Z,16.41
2019-05-17T19:21:06.370Z,16.35
2019-05-17T19:23:38.494Z,16.32
2019-05-17T19:26:10.672Z,16.32
2019-05-17T19:28:42.757Z,16.25
2019-05-17T19:31:14.789Z,16.18
2019-05-17T19:33:46.923Z,16.09
2019-05-17T19:36:19.015Z,16.12
2019-05-17T19:38:51.077Z,15.96
2019-05-17T19:41:23.111Z,15.91
2019-05-17T19:43:55.263Z,15.83
2019-05-17T19:46:27.324Z,15.78
2019-05-17T19:48:59.302Z,15.80
2019-05-17T19:51:31.399Z,15.81
2019-05-17T19:54:03.425Z,15.69
2019-05-17T19:56:35.466Z,15.65
2019-05-17T19:59:07.451Z,15.66
2019-05-17T20:01:39.528Z,15.62
2019-05-17T20:04:11.555Z,15.61
2019-05-17T20:06:43.598Z,15.61
2019-05-17T20:09:15.672Z,15.59
2019-05-17T20:11:47.697Z,15.58
2019-05-17T20:14:19.772Z,15.48
2019-05-17T20:16:51.889Z,15.48
2019-05-17T20:19:23.930Z,15.42
2019-05-17T20:21:55.986Z,15.43
2019-05-17T20:24:27.976Z,15.40
2019-05-17T20:27:00.115Z,15.40
2019-05-17T20:29:32.260Z,15.43
2019-05-17T20:32:04.467Z,15.47
2019-05-17T20:34:36.498Z,15.44
2019-05-17T20:37:08.539Z,15.52
2019-05-17T20:39:40.664Z,15.53
2019-05-17T20:42:12.781Z,15.42
2019-05-17T20:44:44.809Z,15.43
2019-05-17T20:47:16.873Z,15.34
2019-05-17T20:49:48.926Z,15.37
2019-05-17T20:52:21.031Z,15.38
2019-05-17T20:54:53.064Z,15.37
2019-05-17T20:57:25.110Z,15.38
2019-05-17T20:59:57.239Z,15.32
2019-05-17T21:02:29.310Z,15.30
2019-05-17T21:05:01.305Z,15.33
2019-05-17T21:07:33.392Z,15.32
2019-05-17T21:10:05.508Z,15.26
2019-05-17T21:12:37.555Z,15.28
2019-05-17T21:15:09.872Z,15.27
2019-05-17T21:17:41.956Z,15.26
2019-05-17T21:20:13.939Z,15.22
2019-05-17T21:22:45.949Z,15.16
2019-05-17T21:25:17.967Z,14.99
2019-05-17T21:27:50.015Z,14.90
2019-05-17T21:30:22.036Z,14.74
2019-05-17T21:32:54.026Z,14.42
2019-05-17T21:35:26.015Z,14.35
2019-05-17T21:37:58.061Z,14.36
2019-05-17T21:40:30.021Z,14.33
2019-05-17T21:43:02.024Z,14.29
2019-05-17T21:45:34.033Z,14.19
2019-05-17T21:48:06.078Z,14.12
2019-05-17T21:50:38.092Z,14.11
2019-05-17T21:53:10.127Z,14.09
2019-05-17T21:55:42.165Z,14.17
2019-05-17T21:58:14.183Z,14.08
2019-05-17T22:01:10.462Z,14.01
2019-05-17T22:03:42.460Z,14.03
2019-05-17T22:06:14.545Z,13.96
2019-05-17T22:08:46.590Z,13.92
2019-05-17T22:11:18.608Z,13.95
2019-05-17T22:13:50.592Z,13.91
2019-05-17T22:16:22.575Z,13.91
2019-05-17T22:18:54.619Z,13.87
2019-05-17T22:21:26.584Z,13.93
2019-05-17T22:23:58.625Z,13.99
2019-05-17T22:26:30.634Z,13.97
2019-05-17T22:29:02.661Z,13.93
2019-05-17T22:31:34.734Z,13.95
2019-05-17T22:34:06.711Z,13.94
2019-05-17T22:36:38.671Z,13.92
2019-05-17T22:39:10.685Z,13.92
2019-05-17T22:41:42.670Z,13.84
2019-05-17T22:44:14.656Z,13.82
2019-05-17T22:46:46.629Z,13.74
2019-05-17T22:49:18.659Z,13.73
2019-05-17T22:51:50.718Z,13.74
2019-05-17T22:54:22.658Z,13.78
2019-05-17T22:56:54.642Z,13.79
2019-05-17T22:59:26.600Z,13.71
2019-05-17T23:01:58.593Z,13.66
2019-05-17T23:04:30.554Z,13.64
2019-05-17T23:07:02.563Z,13.58
2019-05-17T23:09:34.549Z,13.61
2019-05-17T23:12:06.550Z,13.51
2019-05-17T23:14:38.500Z,13.41
2019-05-17T23:17:10.478Z,13.45
2019-05-17T23:19:42.459Z,13.56
2019-05-17T23:22:14.495Z,13.49
2019-05-17T23:24:46.421Z,13.42
2019-05-17T23:27:18.454Z,13.38
2019-05-17T23:29:50.431Z,13.46
2019-05-17T23:32:22.396Z,13.29
2019-05-17T23:34:54.370Z,13.20
2019-05-17T23:37:26.359Z,13.14
2019-05-17T23:39:58.372Z,13.11
2019-05-17T23:42:30.390Z,13.10
2019-05-17T23:45:02.453Z,13.11
2019-05-17T23:47:34.450Z,13.21
2019-05-17T23:50:07.731Z,13.28
2019-05-17T23:52:39.749Z,13.34
2019-05-17T23:55:11.725Z,13.34
2019-05-17T23:57:43.727Z,13.34
